Time;durP1;ratioP1;P1;durP2;ratioP2;P2;SDS_P1;SDS_P2;PMS_P1;PMS_P2;Temp;Humidity;BMP_temperature;BMP_pressure;BME280_temperature;BME280_humidity;BME280_pressure;Samples;Min_cycle;Max_cycle;Signal;HPM_P1;HPM_P2
2023/12/08 00:01:41;;;;;;;0.20;0.20;;;;;;;5.05;66.86;100861.59;5037500;28;20022;-82
2023/12/08 01:01:32;;;;;;;0.32;0.32;;;;;;;4.64;69.43;100781.84;5015100;28;20096;-81
2023/12/08 01:03:59;;;;;;;0.20;0.20;;;;;;;4.62;69.44;100782.69;5017615;28;20034;-81
2023/12/08 01:06:25;;;;;;;0.55;0.55;;;;;;;4.66;69.32;100774.84;5018026;28;20030;-80
2023/12/08 01:08:51;;;;;;;0.20;0.20;;;;;;;4.62;69.42;100767.84;5016220;28;20034;-82
2023/12/08 01:11:17;;;;;;;0.50;0.50;;;;;;;4.68;69.35;100772.22;5015880;28;20033;-82
2023/12/08 01:13:43;;;;;;;0.20;0.20;;;;;;;4.74;69.23;100766.13;5015774;28;20033;-81
2023/12/08 01:16:10;;;;;;;0.20;0.20;;;;;;;4.73;69.19;100767.84;5015319;28;20031;-80
2023/12/08 01:18:36;;;;;;;0.32;0.32;;;;;;;4.72;69.19;100767.88;5015296;28;20034;-82
2023/12/08 01:21:03;;;;;;;0.40;0.40;;;;;;;4.78;68.89;100766.13;5015270;28;20038;-82
2023/12/08 01:23:29;;;;;;;0.43;0.43;;;;;;;4.66;69.28;100760.84;5015732;28;20046;-82
2023/12/08 01:25:55;;;;;;;0.30;0.30;;;;;;;4.79;69.08;100762.63;5017341;28;20504;-82
2023/12/08 01:28:21;;;;;;;0.20;0.20;;;;;;;4.81;68.73;100763.50;5023468;28;20034;-82
2023/12/08 01:30:47;;;;;;;0.47;0.47;;;;;;;4.78;69.05;100757.38;5020900;28;20467;-82
2023/12/08 01:33:13;;;;;;;0.38;0.38;;;;;;;4.76;68.82;100748.63;5015507;28;20093;-81
2023/12/08 01:35:39;;;;;;;0.63;0.63;;;;;;;4.83;69.05;100745.13;5015442;28;20026;-82
2023/12/08 01:38:06;;;;;;;1.77;1.75;;;;;;;4.69;69.25;100747.75;5016773;28;20040;-82
2023/12/08 01:40:32;;;;;;;0.20;0.20;;;;;;;4.81;69.35;100745.13;5018010;28;20038;-81
2023/12/08 01:42:58;;;;;;;0.17;0.17;;;;;;;4.73;69.90;100753.88;5019148;28;20056;-82
2023/12/08 01:45:24;;;;;;;0.20;0.20;;;;;;;4.73;69.85;100751.25;5017916;28;20040;-81
2023/12/08 01:47:50;;;;;;;0.25;0.25;;;;;;;4.71;69.79;100753.88;5000521;28;20528;-80
2023/12/08 01:50:18;;;;;;;1.30;1.30;;;;;;;4.72;70.28;100752.97;5019079;28;20488;-80
2023/12/08 01:52:45;;;;;;;0.30;0.30;;;;;;;4.67;70.37;100766.09;5018501;28;20029;-80
2023/12/08 01:55:12;;;;;;;1.17;1.17;;;;;;;4.67;70.46;100754.72;5017807;28;20052;-81
2023/12/08 01:57:40;;;;;;;0.20;0.20;;;;;;;4.68;70.62;100738.97;5017796;28;20038;-80
2023/12/08 02:00:07;;;;;;;0.75;0.75;;;;;;;4.68;70.58;100738.97;5018036;28;20049;-80
2023/12/08 02:02:35;;;;;;;0.20;0.20;;;;;;;4.63;71.13;100738.09;5014731;28;20567;-81
2023/12/08 02:05:02;;;;;;;0.43;0.43;;;;;;;4.68;70.59;100731.09;5014177;28;20104;-79
2023/12/08 02:07:28;;;;;;;0.60;0.60;;;;;;;4.62;71.05;100717.09;5014735;28;20512;-81
2023/12/08 02:09:54;;;;;;;0.20;0.20;;;;;;;4.58;71.62;100712.72;5015295;28;20033;-82
2023/12/08 02:12:20;;;;;;;0.30;0.30;;;;;;;4.61;71.44;100712.72;5015144;28;20086;-80
2023/12/08 02:14:50;;;;;;;0.28;0.28;;;;;;;4.56;71.87;100688.22;5013657;28;20034;-81
2023/12/08 02:17:23;;;;;;;0.20;0.20;;;;;;;4.54;71.66;100681.22;5013749;28;20064;-80
2023/12/08 02:19:51;;;;;;;0.43;0.43;;;;;;;4.57;71.38;100676.84;5014098;28;20049;-81
2023/12/08 02:22:21;;;;;;;0.20;0.20;;;;;;;4.60;71.36;100666.34;5014310;28;20052;-80
2023/12/08 02:24:47;;;;;;;0.80;0.80;;;;;;;4.45;72.53;100660.22;5014031;28;20022;-79
2023/12/08 02:27:14;;;;;;;1.10;1.10;;;;;;;4.54;71.96;100661.97;5015554;28;20026;-82
2023/12/08 02:29:41;;;;;;;2.03;1.85;;;;;;;4.56;71.71;100655.00;5016753;28;20104;-80
2023/12/08 02:32:19;;;;;;;0.20;0.20;;;;;;;4.54;72.30;100662.84;5014069;28;20060;-80
2023/12/08 02:34:47;;;;;;;0.22;0.22;;;;;;;4.45;72.81;100660.22;5015240;28;20534;-80
2023/12/08 02:37:16;;;;;;;0.40;0.40;;;;;;;4.47;72.52;100663.69;5017337;28;20066;-81
2023/12/08 02:39:47;;;;;;;1.23;1.20;;;;;;;4.47;72.42;100666.31;5017551;28;20030;-80
2023/12/08 02:42:13;;;;;;;0.20;0.20;;;;;;;4.45;72.76;100675.94;5015482;28;20034;-78
2023/12/08 02:44:39;;;;;;;0.20;0.20;;;;;;;4.43;72.95;100675.06;5014179;28;20041;-79
2023/12/08 02:47:06;;;;;;;0.20;0.20;;;;;;;4.53;72.47;100676.81;5015759;28;20586;-79
2023/12/08 02:49:33;;;;;;;1.35;1.35;;;;;;;4.52;72.67;100677.72;5015479;28;20026;-79
2023/12/08 02:52:00;;;;;;;0.20;0.20;;;;;;;4.54;72.74;100668.09;5014400;28;20115;-80
2023/12/08 02:54:26;;;;;;;0.65;0.65;;;;;;;4.55;72.76;100671.59;5012709;28;20072;-79
2023/12/08 02:56:52;;;;;;;0.32;0.32;;;;;;;4.58;72.68;100673.34;5014112;28;20530;-79
2023/12/08 02:59:18;;;;;;;0.20;0.20;;;;;;;4.58;72.62;100683.84;5014885;28;20068;-79
2023/12/08 03:01:44;;;;;;;0.40;0.40;;;;;;;4.59;72.86;100698.72;5020097;28;20064;-79
2023/12/08 03:04:12;;;;;;;3.72;0.90;;;;;;;4.63;73.08;100695.22;5021729;28;20101;-81
2023/12/08 03:06:38;;;;;;;0.20;0.20;;;;;;;4.66;72.83;100695.22;5019200;28;20045;-79
2023/12/08 03:09:04;;;;;;;0.22;0.22;;;;;;;4.65;73.06;100683.88;5028463;28;20463;-79
2023/12/08 03:11:31;;;;;;;0.85;0.82;;;;;;;4.72;72.80;100695.22;5027824;28;20188;-80
2023/12/08 03:13:57;;;;;;;0.82;0.82;;;;;;;4.64;72.79;100681.25;5026058;28;20030;-80
2023/12/08 03:16:23;;;;;;;0.20;0.20;;;;;;;4.70;72.84;100679.50;5025050;28;20046;-81
2023/12/08 03:18:49;;;;;;;1.00;0.93;;;;;;;4.68;72.89;100667.25;5019539;28;20067;-81
2023/12/08 03:21:23;;;;;;;0.55;0.55;;;;;;;4.67;73.00;100660.25;5014226;28;20058;-80
2023/12/08 03:23:50;;;;;;;0.60;0.60;;;;;;;4.65;72.86;100662.88;5018436;28;20038;-79
2023/12/08 03:26:17;;;;;;;0.68;0.68;;;;;;;4.68;73.00;100654.97;5020687;28;20034;-80
2023/12/08 03:28:43;;;;;;;0.20;0.20;;;;;;;4.65;73.13;100662.00;5021752;28;20093;-81
2023/12/08 03:31:27;;;;;;;0.30;0.30;;;;;;;4.77;73.13;100655.88;5020116;28;20033;-79
2023/12/08 03:33:54;;;;;;;0.20;0.20;;;;;;;4.72;72.93;100653.25;5017601;28;20036;-80
2023/12/08 03:36:20;;;;;;;1.98;1.15;;;;;;;4.76;73.02;100649.75;5023622;28;20404;-79
2023/12/08 03:38:46;;;;;;;1.30;0.47;;;;;;;4.76;72.86;100641.91;5021537;28;20032;-80
2023/12/08 03:41:13;;;;;;;0.20;0.20;;;;;;;4.78;72.83;100636.63;5023660;28;20029;-80
2023/12/08 03:43:39;;;;;;;0.20;0.20;;;;;;;4.78;72.92;100642.75;5021352;28;20048;-81
2023/12/08 03:46:06;;;;;;;0.30;0.30;;;;;;;4.78;72.87;100627.00;5020746;28;20069;-80
2023/12/08 03:48:36;;;;;;;0.38;0.38;;;;;;;4.73;73.13;100610.38;5020720;28;20034;-80
2023/12/08 03:51:03;;;;;;;0.55;0.55;;;;;;;4.67;73.18;100607.75;5021831;28;20029;-80
2023/12/08 03:53:30;;;;;;;0.30;0.30;;;;;;;4.68;73.26;100612.13;5021328;28;20439;-81
2023/12/08 03:55:56;;;;;;;1.13;1.13;;;;;;;4.71;73.30;100601.66;5021000;28;20113;-81
2023/12/08 03:58:22;;;;;;;0.20;0.20;;;;;;;4.75;73.12;100608.63;5018954;28;20029;-81
2023/12/08 04:00:48;;;;;;;0.30;0.30;;;;;;;4.77;73.21;100614.78;5021338;28;20452;-79
2023/12/08 04:03:14;;;;;;;0.20;0.20;;;;;;;4.78;73.22;100621.75;5022872;28;20048;-79
2023/12/08 04:05:41;;;;;;;0.45;0.45;;;;;;;4.79;73.20;100623.50;5021846;28;20030;-81
2023/12/08 04:08:07;;;;;;;0.43;0.43;;;;;;;4.84;73.38;100621.75;5021198;28;20040;-81
2023/12/08 04:10:33;;;;;;;6.40;0.95;;;;;;;4.82;73.27;100618.28;5021938;28;20041;-80
2023/12/08 04:12:59;;;;;;;0.43;0.43;;;;;;;4.84;73.18;100626.13;5022713;28;20129;-80
2023/12/08 04:15:25;;;;;;;0.20;0.20;;;;;;;4.88;72.88;100632.28;5022208;28;20061;-78
2023/12/08 04:17:51;;;;;;;0.20;0.20;;;;;;;4.88;73.08;100632.28;5023530;28;20030;-80
2023/12/08 04:20:18;;;;;;;0.20;0.20;;;;;;;4.89;73.01;100634.03;5021435;28;20118;-81
2023/12/08 04:22:45;;;;;;;0.80;0.80;;;;;;;4.85;73.13;100651.53;5021746;28;20059;-80
2023/12/08 04:25:12;;;;;;;0.50;0.50;;;;;;;4.97;73.06;100642.75;5025678;28;20032;-79
2023/12/08 04:27:39;;;;;;;0.13;0.13;;;;;;;4.99;72.87;100641.00;5023318;28;20032;-80
2023/12/08 04:30:05;;;;;;;0.20;0.20;;;;;;;4.93;73.15;100638.38;5021996;28;20029;-79
2023/12/08 04:32:32;;;;;;;0.10;0.10;;;;;;;4.97;72.96;100627.00;5020261;28;20045;-81
2023/12/08 04:34:59;;;;;;;0.57;0.57;;;;;;;4.95;73.10;100613.03;5019185;28;20026;-80
2023/12/08 04:37:25;;;;;;;0.30;0.30;;;;;;;4.98;72.88;100615.63;5022019;28;20357;-79
2023/12/08 04:39:51;;;;;;;0.30;0.30;;;;;;;5.00;72.89;100622.63;5014655;28;20030;-79
2023/12/08 04:42:17;;;;;;;0.20;0.20;;;;;;;5.01;72.98;100634.88;5018275;28;20025;-81
2023/12/08 04:44:44;;;;;;;0.17;0.17;;;;;;;5.00;73.25;100633.13;5020291;28;20038;-80
2023/12/08 04:47:10;;;;;;;0.13;0.13;;;;;;;5.04;73.00;100644.50;5020415;28;20589;-81
2023/12/08 04:49:36;;;;;;;0.73;0.73;;;;;;;5.04;73.16;100636.63;5020323;28;20034;-79
2023/12/08 04:52:03;;;;;;;0.25;0.25;;;;;;;5.02;73.11;100627.88;5012689;28;20041;-81
2023/12/08 04:54:29;;;;;;;0.20;0.20;;;;;;;5.04;73.06;100623.50;5016959;28;20057;-80
2023/12/08 04:56:55;;;;;;;1.23;1.20;;;;;;;5.01;73.17;100618.28;5019775;28;20037;-80
2023/12/08 04:59:22;;;;;;;0.17;0.17;;;;;;;5.07;73.04;100610.38;5018837;28;20034;-79
2023/12/08 05:01:51;;;;;;;0.20;0.20;;;;;;;5.08;73.08;100598.97;5020427;28;20038;-81
2023/12/08 05:04:19;;;;;;;0.20;0.20;;;;;;;5.10;73.13;100607.75;5015627;28;20033;-79
2023/12/08 05:06:46;;;;;;;0.38;0.38;;;;;;;5.12;73.24;100595.50;5020137;28;20709;-81
2023/12/08 05:09:13;;;;;;;0.57;0.57;;;;;;;5.11;73.01;100600.72;5020701;28;20046;-81
2023/12/08 05:11:39;;;;;;;0.20;0.20;;;;;;;5.10;73.05;100599.84;5021068;28;20086;-81
2023/12/08 05:14:06;;;;;;;0.17;0.17;;;;;;;5.07;73.29;100602.50;5020187;28;20075;-80
2023/12/08 05:16:32;;;;;;;1.05;1.05;;;;;;;5.14;73.10;100609.47;5018853;28;20591;-79
2023/12/08 05:18:58;;;;;;;0.20;0.20;;;;;;;5.12;73.22;100606.00;5017795;28;20041;-79
2023/12/08 05:21:24;;;;;;;0.22;0.22;;;;;;;5.13;73.19;100607.72;5020792;28;20036;-81
2023/12/08 05:23:50;;;;;;;0.20;0.20;;;;;;;5.09;73.33;100605.97;5021002;28;20038;-81
2023/12/08 05:26:16;;;;;;;0.30;0.30;;;;;;;5.13;73.45;100612.97;5020498;28;20065;-81
2023/12/08 05:28:42;;;;;;;0.82;0.82;;;;;;;5.12;73.37;100611.25;5019154;28;21369;-80
2023/12/08 05:31:09;;;;;;;0.77;0.77;;;;;;;5.14;73.46;100606.84;5019611;28;20022;-80
2023/12/08 05:33:35;;;;;;;0.30;0.30;;;;;;;5.11;73.64;100609.50;5024546;28;20034;-80
2023/12/08 05:36:01;;;;;;;0.15;0.15;;;;;;;5.16;73.39;100606.88;5034740;28;20034;-79
2023/12/08 05:38:27;;;;;;;0.20;0.20;;;;;;;5.18;73.26;100606.00;5034333;28;20068;-79
2023/12/08 05:40:53;;;;;;;0.52;0.52;;;;;;;5.19;73.30;100606.84;5034416;28;20043;-80
2023/12/08 05:43:19;;;;;;;1.20;1.20;;;;;;;5.22;73.38;100604.22;5032414;28;20044;-79
2023/12/08 05:45:45;;;;;;;0.30;0.30;;;;;;;5.23;73.52;100610.34;5033325;28;20041;-80
2023/12/08 05:48:12;;;;;;;0.57;0.57;;;;;;;5.21;73.58;100604.22;5035078;28;20048;-79
2023/12/08 05:50:38;;;;;;;1.95;1.85;;;;;;;5.22;73.56;100611.22;5030512;28;20034;-79
2023/12/08 05:53:04;;;;;;;0.20;0.20;;;;;;;5.22;73.58;100613.84;5027965;28;20037;-80
2023/12/08 05:55:30;;;;;;;1.50;1.48;;;;;;;5.21;73.68;100610.34;5027805;28;20045;-80
2023/12/08 05:57:56;;;;;;;1.90;0.60;;;;;;;5.20;73.48;100611.22;5020892;28;20025;-79
2023/12/08 06:00:22;;;;;;;0.40;0.40;;;;;;;5.22;73.60;100622.63;5023755;28;20041;-80
2023/12/08 06:02:49;;;;;;;0.20;0.20;;;;;;;5.28;73.36;100621.72;5022379;28;20041;-81
2023/12/08 06:05:15;;;;;;;0.20;0.20;;;;;;;5.28;73.54;100626.97;5015061;28;20065;-80
2023/12/08 06:07:41;;;;;;;0.20;0.20;;;;;;;5.25;73.73;100624.38;5022149;28;20034;-79
2023/12/08 06:10:08;;;;;;;2.05;1.95;;;;;;;5.27;73.70;100625.22;5021079;28;20018;-80
2023/12/08 06:12:35;;;;;;;0.50;0.50;;;;;;;5.26;73.86;100613.84;5020516;28;20033;-81
2023/12/08 06:15:01;;;;;;;0.20;0.20;;;;;;;5.32;73.71;100620.81;5021197;28;20045;-81
2023/12/08 06:17:28;;;;;;;0.20;0.20;;;;;;;5.33;73.65;100627.84;5021450;28;20432;-81
2023/12/08 06:19:54;;;;;;;0.68;0.68;;;;;;;5.36;73.59;100633.09;5021078;28;20037;-81
2023/12/08 06:22:20;;;;;;;4.38;3.92;;;;;;;5.36;73.63;100635.72;5013005;28;20053;-81
2023/12/08 06:24:46;;;;;;;2.05;1.08;;;;;;;5.42;73.57;100629.56;5018788;28;20046;-80
2023/12/08 06:27:12;;;;;;;0.20;0.20;;;;;;;5.38;73.76;100628.69;5020173;28;20030;-80
2023/12/08 06:29:38;;;;;;;0.10;0.10;;;;;;;5.44;73.61;100627.81;5019686;28;20101;-81
2023/12/08 06:32:05;;;;;;;0.20;0.20;;;;;;;5.44;73.64;100633.94;5019755;28;20197;-81
2023/12/08 06:34:31;;;;;;;1.55;0.88;;;;;;;5.48;73.55;100625.19;5020814;28;20029;-81
2023/12/08 06:36:58;;;;;;;0.28;0.28;;;;;;;5.47;73.72;100628.69;5021053;28;20034;-80
2023/12/08 06:39:24;;;;;;;0.50;0.50;;;;;;;5.47;73.80;100631.31;5020437;28;20053;-80
2023/12/08 06:41:50;;;;;;;0.20;0.20;;;;;;;5.50;73.74;100639.19;5020084;28;20041;-81
2023/12/08 06:44:16;;;;;;;0.35;0.35;;;;;;;5.50;73.80;100628.66;5020003;28;20144;-81
2023/12/08 06:46:43;;;;;;;0.20;0.20;;;;;;;5.53;74.11;100630.41;5012300;28;20078;-81
2023/12/08 06:49:10;;;;;;;0.30;0.30;;;;;;;5.53;74.11;100633.03;5020907;28;20030;-80
2023/12/08 06:51:36;;;;;;;0.55;0.55;;;;;;;5.58;73.98;100635.66;5020031;28;20034;-81
2023/12/08 06:54:03;;;;;;;0.98;0.95;;;;;;;5.59;74.12;100627.75;5020859;28;20092;-81
2023/12/08 06:56:29;;;;;;;0.30;0.30;;;;;;;5.63;73.81;100629.53;5021224;28;20056;-80
2023/12/08 06:58:56;;;;;;;0.10;0.10;;;;;;;5.61;73.86;100633.03;5024585;28;20030;-79
2023/12/08 07:01:23;;;;;;;0.30;0.30;;;;;;;5.62;73.94;100627.78;5023435;28;20109;-80
2023/12/08 07:03:49;;;;;;;0.35;0.35;;;;;;;5.63;74.05;100632.16;5023872;28;20081;-81
2023/12/08 07:06:15;;;;;;;0.68;0.68;;;;;;;5.63;74.07;100639.16;5022636;28;20472;-81
2023/12/08 07:08:41;;;;;;;1.13;1.13;;;;;;;5.68;74.38;100629.50;5019809;28;20483;-79
2023/12/08 07:11:08;;;;;;;0.20;0.20;;;;;;;5.69;73.96;100627.75;5022123;28;20057;-80
2023/12/08 07:13:35;;;;;;;0.30;0.30;;;;;;;5.71;74.08;100624.25;5018875;28;20041;-81
2023/12/08 07:16:02;;;;;;;0.20;0.20;;;;;;;5.77;73.76;100625.94;5013194;28;20026;-81
2023/12/08 07:18:28;;;;;;;0.85;0.60;;;;;;;5.73;74.04;100635.63;5022601;28;20056;-80
2023/12/08 07:20:54;;;;;;;0.20;0.20;;;;;;;5.70;74.25;100630.38;5018467;28;20148;-81
2023/12/08 07:23:20;;;;;;;0.20;0.20;;;;;;;5.71;74.27;100631.22;5011920;28;20030;-80
2023/12/08 07:25:46;;;;;;;0.20;0.20;;;;;;;5.75;74.41;100628.59;5020681;28;20282;-78
2023/12/08 07:28:12;;;;;;;1.85;1.10;;;;;;;5.74;74.48;100644.38;5022106;28;20037;-81
2023/12/08 07:30:39;;;;;;;2.47;2.28;;;;;;;5.77;74.39;100652.25;5017193;28;20467;-82
2023/12/08 07:33:05;;;;;;;0.30;0.30;;;;;;;5.75;74.68;100646.13;5017016;28;20026;-80
2023/12/08 07:35:31;;;;;;;0.55;0.55;;;;;;;5.75;74.61;100649.63;5017387;28;20030;-82
2023/12/08 07:37:57;;;;;;;2.33;2.22;;;;;;;5.77;74.58;100653.13;5020342;28;20022;-82
2023/12/08 07:40:24;;;;;;;1.17;1.17;;;;;;;5.79;74.72;100646.09;5017107;28;20033;-82
2023/12/08 07:42:50;;;;;;;0.95;0.95;;;;;;;5.81;74.78;100648.75;5018024;28;20113;-82
2023/12/08 07:45:16;;;;;;;0.20;0.20;;;;;;;5.78;74.72;100649.63;5015888;28;20057;-80
2023/12/08 07:47:42;;;;;;;0.20;0.20;;;;;;;5.83;74.73;100652.22;5021556;28;20093;-80
2023/12/08 07:50:09;;;;;;;0.60;0.60;;;;;;;5.78;75.06;100654.00;5020255;28;20030;-82
2023/12/08 07:52:36;;;;;;;0.63;0.63;;;;;;;5.84;74.58;100653.97;5013112;28;20087;-80
2023/12/08 07:55:03;;;;;;;2.20;1.50;;;;;;;5.91;74.80;100666.22;5015773;28;20492;-83
2023/12/08 07:57:29;;;;;;;1.20;1.20;;;;;;;5.91;74.84;100668.84;5013469;28;20026;-82
2023/12/08 07:59:55;;;;;;;0.20;0.20;;;;;;;5.93;74.69;100671.47;5012309;28;20049;-80
2023/12/08 08:02:21;;;;;;;1.38;1.38;;;;;;;6.00;74.59;100678.50;5009792;28;20085;-82
2023/12/08 08:04:47;;;;;;;0.20;0.20;;;;;;;5.98;74.80;100683.78;5013245;28;20036;-82
2023/12/08 08:07:13;;;;;;;0.20;0.20;;;;;;;6.03;74.37;100681.13;5015954;28;20042;-82
2023/12/08 08:09:39;;;;;;;0.52;0.52;;;;;;;6.04;74.88;100684.63;5017888;28;20457;-81
2023/12/08 08:12:06;;;;;;;0.20;0.20;;;;;;;6.09;74.52;100691.63;5018108;28;20073;-83
2023/12/08 08:14:32;;;;;;;0.10;0.10;;;;;;;6.11;74.74;100679.34;5015541;28;20080;-82
2023/12/08 08:16:59;;;;;;;0.28;0.28;;;;;;;6.09;74.59;100683.75;5020929;28;20062;-81
2023/12/08 08:19:25;;;;;;;0.20;0.20;;;;;;;6.19;74.63;100691.59;5033733;28;20233;-80
2023/12/08 08:21:51;;;;;;;1.77;1.67;;;;;;;6.21;74.58;100695.09;5011836;28;20064;-82
2023/12/08 08:24:17;;;;;;;0.30;0.30;;;;;;;6.22;74.45;100695.06;5015984;28;20061;-82
2023/12/08 08:26:43;;;;;;;0.43;0.43;;;;;;;6.22;74.94;100686.28;5018819;28;20030;-83
2023/12/08 08:29:10;;;;;;;0.30;0.30;;;;;;;6.28;74.58;100696.78;5022260;28;20106;-81
2023/12/08 08:31:36;;;;;;;0.20;0.20;;;;;;;6.27;75.06;100697.69;5018915;28;20038;-82
2023/12/08 08:34:04;;;;;;;0.20;0.20;;;;;;;6.28;74.96;100691.53;5017782;28;20437;-82
2023/12/08 08:36:30;;;;;;;0.20;0.20;;;;;;;6.30;74.78;100684.50;5016837;28;20029;-81
2023/12/08 08:38:56;;;;;;;0.43;0.43;;;;;;;6.35;74.93;100692.41;5014006;28;20493;-83
2023/12/08 08:41:23;;;;;;;0.20;0.20;;;;;;;6.39;75.15;100705.53;5018734;28;20041;-82
2023/12/08 08:43:50;;;;;;;0.20;0.20;;;;;;;6.43;74.80;100706.38;5019478;28;20073;-83
2023/12/08 08:46:17;;;;;;;3.47;1.25;;;;;;;6.45;75.08;100710.72;5019688;28;20029;-82
2023/12/08 08:48:43;;;;;;;0.20;0.20;;;;;;;6.51;74.86;100720.38;5018876;28;20520;-81
2023/12/08 08:51:10;;;;;;;0.43;0.43;;;;;;;6.50;75.37;100717.75;5018078;28;20041;-83
2023/12/08 08:53:36;;;;;;;1.20;1.20;;;;;;;6.57;74.82;100722.13;5016593;28;20032;-83
2023/12/08 08:56:03;;;;;;;0.90;0.88;;;;;;;6.57;75.01;100711.59;5014318;28;20068;-83
2023/12/08 08:58:29;;;;;;;0.15;0.15;;;;;;;6.57;75.63;100719.47;5014031;28;20219;-83
2023/12/08 09:00:55;;;;;;;0.73;0.73;;;;;;;6.64;75.07;100711.53;5016593;28;20030;-82
2023/12/08 09:03:21;;;;;;;0.20;0.20;;;;;;;6.69;75.43;100722.03;5018587;28;20081;-84
2023/12/08 09:05:48;;;;;;;0.20;0.20;;;;;;;6.71;75.33;100712.34;5014986;28;20021;-82
2023/12/08 09:08:14;;;;;;;0.20;0.20;;;;;;;6.76;75.44;100709.69;5020320;28;20030;-82
2023/12/08 09:10:45;;;;;;;0.30;0.30;;;;;;;6.78;75.58;100703.53;5017824;28;20041;-83
2023/12/08 09:13:12;;;;;;;0.20;0.20;;;;;;;6.83;75.89;100707.88;5015532;28;20048;-83
2023/12/08 09:15:38;;;;;;;0.30;0.30;;;;;;;6.86;75.37;100711.38;5016871;28;20025;-83
2023/12/08 09:18:05;;;;;;;0.10;0.10;;;;;;;6.91;75.69;100714.84;5010103;28;20037;-83
2023/12/08 09:20:31;;;;;;;0.20;0.20;;;;;;;6.94;75.49;100719.22;5016924;28;20049;-83
2023/12/08 09:22:58;;;;;;;1.80;1.58;;;;;;;7.00;75.23;100718.31;5015840;28;20029;-83
2023/12/08 09:25:24;;;;;;;0.60;0.60;;;;;;;7.02;75.24;100727.09;5015417;28;20559;-83
2023/12/08 09:27:50;;;;;;;0.28;0.28;;;;;;;7.01;75.47;100736.75;5014015;28;20044;-82
2023/12/08 09:30:16;;;;;;;0.20;0.20;;;;;;;7.03;75.75;100728.81;5012995;28;20029;-83
2023/12/08 09:32:42;;;;;;;2.92;1.52;;;;;;;7.10;76.17;100734.06;5013186;28;20097;-83
2023/12/08 09:35:09;;;;;;;0.68;0.68;;;;;;;7.13;76.31;100734.03;5014491;28;20030;-83
2023/12/08 09:37:35;;;;;;;0.20;0.20;;;;;;;7.21;75.82;100733.09;5015835;28;20425;-84
2023/12/08 09:40:01;;;;;;;0.47;0.47;;;;;;;7.28;76.13;100737.44;5020393;28;20037;-83
2023/12/08 09:42:51;;;;;;;0.65;0.65;;;;;;;7.35;76.30;100740.88;5021930;28;20026;-83
2023/12/08 09:45:18;;;;;;;1.75;1.42;;;;;;;7.37;76.33;100732.06;5013565;28;20038;-83
2023/12/08 09:47:49;;;;;;;2.35;2.15;;;;;;;7.41;76.05;100725.91;5010296;28;20049;-81
2023/12/08 09:50:16;;;;;;;0.63;0.63;;;;;;;7.50;76.10;100732.84;5018720;28;20037;-82
2023/12/08 09:52:44;;;;;;;0.55;0.55;;;;;;;7.52;76.58;100732.84;5019420;28;20018;-81
2023/12/08 09:55:12;;;;;;;0.10;0.10;;;;;;;7.57;76.66;100731.88;5017879;28;20033;-81
2023/12/08 09:57:41;;;;;;;0.40;0.40;;;;;;;7.70;76.56;100737.94;5008493;28;20041;-81
2023/12/08 10:00:12;;;;;;;1.05;1.05;;;;;;;7.67;76.09;100737.94;5015312;28;20125;-82
2023/12/08 10:02:39;;;;;;;1.27;1.27;;;;;;;7.65;76.51;100744.13;5012752;28;20105;-81
2023/12/08 10:05:06;;;;;;;0.77;0.77;;;;;;;7.72;77.22;100746.69;5014009;28;20036;-81
2023/12/08 10:07:34;;;;;;;0.20;0.20;;;;;;;7.68;77.05;100752.88;5015138;28;20033;-82
2023/12/08 10:10:01;;;;;;;0.35;0.35;;;;;;;7.78;76.86;100744.00;5014772;28;20018;-81
2023/12/08 10:12:28;;;;;;;4.75;2.42;;;;;;;7.86;76.93;100743.03;5012467;28;20029;-82
2023/12/08 10:14:57;;;;;;;1.95;1.85;;;;;;;7.80;76.36;100744.00;5013803;28;20029;-82
2023/12/08 10:17:24;;;;;;;0.20;0.20;;;;;;;7.91;76.15;100751.78;5017802;28;20579;-82
2023/12/08 10:19:52;;;;;;;0.65;0.65;;;;;;;7.93;76.45;100750.00;5015838;28;20030;-83
2023/12/08 10:22:19;;;;;;;0.10;0.10;;;;;;;7.97;76.53;100746.44;5009609;28;20034;-82
2023/12/08 10:24:46;;;;;;;0.30;0.30;;;;;;;8.00;76.42;100746.41;5017556;28;20065;-82
2023/12/08 10:27:13;;;;;;;0.30;0.30;;;;;;;7.98;76.87;100737.63;5018700;28;20026;-83
2023/12/08 10:29:39;;;;;;;0.30;0.30;;;;;;;8.02;77.34;100736.69;5018584;28;20026;-83
2023/12/08 10:32:05;;;;;;;1.88;1.08;;;;;;;8.07;77.36;100734.91;5018455;28;20030;-84
2023/12/08 10:34:32;;;;;;;2.45;1.35;;;;;;;8.20;77.42;100738.28;5016071;28;20034;-82
2023/12/08 10:36:58;;;;;;;1.88;1.27;;;;;;;8.29;77.08;100742.56;5016978;28;20033;-82
2023/12/08 10:39:25;;;;;;;9.13;1.67;;;;;;;8.31;77.01;100739.91;5017219;28;20026;-82
2023/12/08 10:41:52;;;;;;;0.50;0.50;;;;;;;8.39;77.60;100744.19;5011729;28;20054;-82
2023/12/08 10:44:22;;;;;;;0.10;0.10;;;;;;;8.52;77.17;100744.06;5016313;28;20089;-82
2023/12/08 10:46:49;;;;;;;1.98;1.45;;;;;;;8.57;77.04;100736.94;5016966;28;20061;-82
2023/12/08 10:49:19;;;;;;;0.47;0.47;;;;;;;8.59;77.26;100740.47;5017428;28;20041;-82
2023/12/08 10:51:47;;;;;;;0.38;0.38;;;;;;;8.67;77.10;100733.31;5018328;28;20079;-82
2023/12/08 10:54:16;;;;;;;0.77;0.77;;;;;;;8.66;77.43;100739.50;5030027;28;20113;-81
2023/12/08 10:56:45;;;;;;;0.10;0.10;;;;;;;8.78;77.66;100742.84;5026036;28;20022;-82
2023/12/08 10:59:16;;;;;;;0.10;0.10;;;;;;;8.82;77.18;100732.22;5019598;28;20022;-82
2023/12/08 11:01:44;;;;;;;1.15;1.15;;;;;;;8.89;77.22;100733.00;5017400;28;20034;-82
2023/12/08 11:04:15;;;;;;;0.20;0.20;;;;;;;8.97;77.54;100732.88;5016769;28;20057;-82
2023/12/08 11:06:48;;;;;;;0.20;0.20;;;;;;;8.99;77.21;100737.22;5016221;28;20026;-82
2023/12/08 11:09:20;;;;;;;0.40;0.40;;;;;;;8.99;77.35;100734.59;5016833;28;20485;-82
2023/12/08 11:11:54;;;;;;;0.45;0.45;;;;;;;9.07;77.19;100742.41;5016852;28;20064;-82
2023/12/08 11:14:47;;;;;;;0.20;0.20;;;;;;;9.04;77.41;100748.59;5015075;28;20022;-81
2023/12/08 11:17:20;;;;;;;1.80;1.67;;;;;;;9.10;77.35;100749.41;5011303;28;20447;-82
2023/12/08 11:19:47;;;;;;;0.20;0.20;;;;;;;9.04;77.92;100759.19;5014704;28;20407;-82
2023/12/08 11:22:14;;;;;;;0.60;0.60;;;;;;;9.15;77.49;100755.53;5017398;28;20032;-82
2023/12/08 11:24:42;;;;;;;1.20;1.20;;;;;;;9.14;78.03;100752.00;5014924;28;20034;-82
2023/12/08 11:30:24;;;;;;;0.13;0.13;;;;;;;9.29;77.80;100757.94;5128209;27;20036;-81
2023/12/08 11:35:38;;;;;;;2.05;1.33;;;;;;;9.40;77.46;100740.13;5134232;27;20034;-81
2023/12/08 11:38:05;;;;;;;1.95;0.73;;;;;;;9.37;77.43;100748.97;5125942;28;20040;-82
2023/12/08 11:40:31;;;;;;;0.30;0.30;;;;;;;9.41;77.82;100751.56;5114941;28;20033;-82
2023/12/08 11:42:59;;;;;;;1.35;0.70;;;;;;;9.50;77.95;100751.44;5130644;28;20063;-82
2023/12/08 11:45:26;;;;;;;0.25;0.25;;;;;;;9.52;77.80;100754.91;5127211;28;20039;-82
2023/12/08 11:47:52;;;;;;;0.52;0.52;;;;;;;9.54;78.03;100747.81;5131541;28;20020;-82
2023/12/08 11:50:18;;;;;;;1.80;1.70;;;;;;;9.54;78.01;100750.47;5119087;28;20032;-82
2023/12/08 11:52:45;;;;;;;0.30;0.30;;;;;;;9.50;78.24;100762.00;5107138;28;20013;-82
2023/12/08 11:55:16;;;;;;;0.73;0.73;;;;;;;9.58;78.06;100759.22;5113603;28;20024;-81
2023/12/08 11:57:53;;;;;;;1.60;1.60;;;;;;;9.67;78.03;100753.75;5109391;28;20395;-82
2023/12/08 12:00:21;;;;;;;0.30;0.30;;;;;;;9.67;78.02;100759.03;5107737;28;20047;-82
2023/12/08 12:02:49;;;;;;;1.85;1.75;;;;;;;9.62;78.17;100759.16;5107569;28;20414;-82
2023/12/08 12:05:16;;;;;;;0.20;0.20;;;;;;;9.64;78.02;100765.25;5110778;28;20047;-82
2023/12/08 12:07:45;;;;;;;0.30;0.30;;;;;;;9.74;78.04;100771.28;5107037;28;20034;-82
2023/12/08 12:10:12;;;;;;;1.95;1.85;;;;;;;9.79;77.89;100765.91;5099676;28;20062;-81
2023/12/08 12:12:53;;;;;;;0.20;0.20;;;;;;;9.85;77.98;100764.00;5107913;28;20019;-82
2023/12/08 12:15:23;;;;;;;1.27;1.27;;;;;;;9.80;77.98;100765.00;5100693;28;20458;-82
2023/12/08 12:17:51;;;;;;;0.30;0.30;;;;;;;9.75;78.35;100764.22;5107214;28;20024;-83
2023/12/08 12:20:18;;;;;;;0.20;0.20;;;;;;;9.86;77.80;100754.31;5110347;28;20081;-82
2023/12/08 12:22:44;;;;;;;2.20;0.93;;;;;;;9.83;78.37;100762.28;5111776;28;20032;-82
2023/12/08 12:25:11;;;;;;;1.65;1.55;;;;;;;9.91;77.86;100767.47;5098409;28;20123;-82
2023/12/08 12:27:41;;;;;;;0.38;0.38;;;;;;;9.88;78.41;100757.78;5095019;28;20039;-82
2023/12/08 12:30:08;;;;;;;4.57;1.33;;;;;;;9.93;78.17;100755.97;5107110;28;20031;-81
2023/12/08 12:32:34;;;;;;;0.17;0.17;;;;;;;9.99;78.14;100758.50;5096838;28;20095;-84
2023/12/08 12:35:01;;;;;;;0.20;0.20;;;;;;;10.09;77.98;100755.66;5090922;28;20040;-83
2023/12/08 12:37:27;;;;;;;0.30;0.30;;;;;;;10.16;77.75;100755.50;5100682;28;20196;-83